createdAt,value
2022-10-06T00:02:40.698Z,6.85
2022-10-06T00:07:43.434Z,7.32
2022-10-06T00:12:48.101Z,13.27
2022-10-06T00:17:52.359Z,13.10
2022-10-06T00:22:56.988Z,13.07
2022-10-06T00:27:59.693Z,11.90
2022-10-06T00:33:04.541Z,3.78
2022-10-06T00:38:07.238Z,4.75
2022-10-06T00:43:42.211Z,6.80
2022-10-06T00:48:49.086Z,7.05
2022-10-06T00:53:52.470Z,5.50
2022-10-06T00:58:55.153Z,4.25
2022-10-06T01:04:05.620Z,4.35
2022-10-06T01:09:09.698Z,2.92
2022-10-06T01:14:12.790Z,3.15
2022-10-06T01:19:28.791Z,3.78
2022-10-06T01:24:33.808Z,8.00
2022-10-06T01:29:37.845Z,3.13
2022-10-06T01:34:40.727Z,2.72
2022-10-06T01:39:45.337Z,1.85
2022-10-06T01:44:48.970Z,4.05
2022-10-06T01:49:51.748Z,7.90
2022-10-06T01:54:55.917Z,7.40
2022-10-06T01:59:59.542Z,6.88
2022-10-06T02:05:02.233Z,7.43
2022-10-06T02:10:07.581Z,6.57
2022-10-06T02:15:11.595Z,3.85
2022-10-06T02:20:14.551Z,2.83
2022-10-06T02:25:18.695Z,9.48
2022-10-06T02:30:21.779Z,4.82
2022-10-06T02:35:24.857Z,5.78
2022-10-06T02:40:29.311Z,3.53
2022-10-06T02:45:33.056Z,3.90
2022-10-06T02:50:36.129Z,5.40
2022-10-06T02:55:41.058Z,10.25
2022-10-06T03:00:44.137Z,4.53
2022-10-06T03:05:47.281Z,7.10
2022-10-06T03:10:51.472Z,4.30
2022-10-06T03:15:54.557Z,9.45
2022-10-06T03:21:02.306Z,15.98
2022-10-06T03:26:06.784Z,6.30
2022-10-06T03:31:09.633Z,4.22
2022-10-06T03:36:14.082Z,6.25
2022-10-06T03:41:20.259Z,16.10
2022-10-06T03:46:25.382Z,6.03
2022-10-06T03:51:31.095Z,6.22
2022-10-06T03:56:38.019Z,8.02
2022-10-06T04:01:42.740Z,9.93
2022-10-06T04:06:47.536Z,22.35
2022-10-06T04:11:55.201Z,7.60
2022-10-06T04:16:58.053Z,17.33
2022-10-06T04:22:06.622Z,21.20
2022-10-06T04:27:30.193Z,25.02
2022-10-06T04:32:48.930Z,9.98
2022-10-06T04:37:53.796Z,14.48
2022-10-06T04:42:58.051Z,16.40
2022-10-06T04:48:02.190Z,17.38
2022-10-06T04:53:05.510Z,21.70
2022-10-06T04:58:10.245Z,22.00
2022-10-06T05:03:13.456Z,21.15
2022-10-06T05:08:16.980Z,13.95
2022-10-06T05:13:21.644Z,28.95
2022-10-06T05:18:24.595Z,18.20
2022-10-06T05:23:29.164Z,11.27
2022-10-06T05:28:34.653Z,16.63
2022-10-06T05:33:39.406Z,29.23
2022-10-06T05:38:43.967Z,19.08
2022-10-06T05:43:48.900Z,27.17
2022-10-06T05:48:54.861Z,31.35
2022-10-06T05:54:00.128Z,24.25
2022-10-06T05:59:06.696Z,27.48
2022-10-06T06:04:11.989Z,30.02
2022-10-06T06:09:23.237Z,26.73
2022-10-06T06:14:49.316Z,18.52
2022-10-06T06:19:56.544Z,17.13
2022-10-06T06:24:59.530Z,25.83
2022-10-06T06:30:03.862Z,39.25
2022-10-06T06:35:07.987Z,17.00
2022-10-06T06:40:11.196Z,26.77
2022-10-06T06:45:17.079Z,19.13
2022-10-06T06:50:35.221Z,28.90
2022-10-06T06:55:49.883Z,29.65
2022-10-06T07:00:54.811Z,20.70
2022-10-06T07:06:06.615Z,22.85
2022-10-06T07:11:18.615Z,21.27
2022-10-06T07:16:41.959Z,34.15
2022-10-06T07:22:08.671Z,19.25
2022-10-06T07:27:12.090Z,23.93
2022-10-06T07:32:16.599Z,20.42
2022-10-06T07:37:21.828Z,19.67
2022-10-06T07:42:24.701Z,27.95
2022-10-06T07:47:30.079Z,28.80
2022-10-06T07:52:33.359Z,36.63
2022-10-06T07:57:36.253Z,16.40
2022-10-06T08:02:40.384Z,24.67
2022-10-06T08:07:43.246Z,21.17
2022-10-06T08:17:54.939Z,31.08
2022-10-06T08:22:57.675Z,16.17
2022-10-06T08:28:00.465Z,20.75
2022-10-06T08:33:05.985Z,22.13
2022-10-06T08:38:08.711Z,20.48
2022-10-06T08:43:17.156Z,16.40
2022-10-06T08:48:30.022Z,19.85
2022-10-06T08:53:38.141Z,18.65
2022-10-06T08:58:52.581Z,21.05
2022-10-06T09:04:06.037Z,23.55
2022-10-06T09:09:21.750Z,25.85
2022-10-06T09:14:33.241Z,13.32
2022-10-06T09:19:43.262Z,42.10
2022-10-06T09:24:50.229Z,21.08
2022-10-06T09:35:00.650Z,33.20
2022-10-06T09:40:25.614Z,23.77
2022-10-06T09:45:29.038Z,29.05
2022-10-06T09:50:35.197Z,28.15
2022-10-06T09:55:45.896Z,20.00
2022-10-06T10:00:53.728Z,26.55
2022-10-06T10:06:02.641Z,23.33
2022-10-06T10:11:37.529Z,15.23
2022-10-06T10:16:40.290Z,16.73
2022-10-06T10:21:45.916Z,14.35
2022-10-06T10:26:57.059Z,15.57
2022-10-06T10:32:09.744Z,14.27
2022-10-06T10:37:18.151Z,22.90
2022-10-06T10:42:28.652Z,12.57
2022-10-06T10:47:35.608Z,13.10
2022-10-06T10:52:43.572Z,13.82
2022-10-06T10:57:47.607Z,13.55
2022-10-06T11:02:54.948Z,16.02
2022-10-06T11:08:06.024Z,13.77
2022-10-06T11:13:20.553Z,13.15
2022-10-06T11:18:38.363Z,8.02
2022-10-06T11:23:58.787Z,12.75
2022-10-06T11:29:08.813Z,11.98
2022-10-06T11:34:12.776Z,14.40
2022-10-06T11:39:22.891Z,8.30
2022-10-06T11:44:33.474Z,7.95
2022-10-06T11:50:00.761Z,18.80
2022-10-06T11:55:14.085Z,14.75
2022-10-06T12:00:46.240Z,7.40
2022-10-06T12:05:56.135Z,11.80
2022-10-06T12:11:02.269Z,10.68
2022-10-06T12:21:59.390Z,13.32
2022-10-06T12:27:27.251Z,11.13
2022-10-06T12:32:46.290Z,8.60
2022-10-06T12:37:54.395Z,9.27
2022-10-06T12:43:25.495Z,13.45
2022-10-06T12:48:37.790Z,11.27
2022-10-06T12:53:51.203Z,11.00
2022-10-06T12:58:55.641Z,7.55
2022-10-06T13:03:58.421Z,7.32
2022-10-06T13:09:07.851Z,9.55
2022-10-06T13:14:14.896Z,12.32
2022-10-06T13:19:22.278Z,9.57
2022-10-06T13:24:28.014Z,16.17
2022-10-06T13:29:32.766Z,8.65
2022-10-06T13:34:42.990Z,19.27
2022-10-06T13:39:46.202Z,14.10
2022-10-06T13:44:57.691Z,13.18
2022-10-06T13:50:05.830Z,13.40
2022-10-06T14:00:24.653Z,9.13
2022-10-06T14:05:31.738Z,19.17
2022-10-06T14:15:52.454Z,14.65
2022-10-06T14:20:56.470Z,9.82
2022-10-06T14:25:59.322Z,12.95
2022-10-06T14:31:03.457Z,9.63
2022-10-06T14:36:06.411Z,14.32
2022-10-06T14:41:09.202Z,7.32
2022-10-06T14:46:14.555Z,10.38
2022-10-06T14:51:18.403Z,6.38
2022-10-06T14:56:23.032Z,11.50
2022-10-06T15:01:28.592Z,10.55
2022-10-06T15:06:48.722Z,12.95
2022-10-06T15:11:53.670Z,9.43
2022-10-06T15:17:00.071Z,6.82
2022-10-06T15:22:04.583Z,8.45
2022-10-06T15:27:25.339Z,9.18
2022-10-06T15:32:29.539Z,13.32
2022-10-06T15:37:32.715Z,9.68
2022-10-06T15:42:35.533Z,8.70
2022-10-06T15:47:39.617Z,6.97
2022-10-06T15:52:42.983Z,5.43
2022-10-06T15:57:45.712Z,12.02
2022-10-06T16:02:50.270Z,17.50
2022-10-06T16:07:53.171Z,12.77
2022-10-06T16:12:55.961Z,15.20
2022-10-06T16:18:00.109Z,18.90
2022-10-06T16:23:03.811Z,15.02
2022-10-06T16:28:06.655Z,13.20
2022-10-06T16:33:10.756Z,11.45
2022-10-06T16:38:13.791Z,11.63
2022-10-06T16:43:16.846Z,11.18
2022-10-06T16:48:20.994Z,13.25
2022-10-06T16:53:23.707Z,18.10
2022-10-06T16:58:27.044Z,20.40
2022-10-06T17:03:31.232Z,8.70
2022-10-06T17:08:33.986Z,12.02
2022-10-06T17:13:39.054Z,17.17
2022-10-06T17:18:43.377Z,19.38
2022-10-06T17:23:46.455Z,17.35
2022-10-06T17:28:50.817Z,7.63
2022-10-06T17:33:55.662Z,9.30
2022-10-06T17:39:02.166Z,11.50
2022-10-06T17:44:07.810Z,17.83
2022-10-06T17:49:14.896Z,21.52
2022-10-06T17:54:20.660Z,13.30
2022-10-06T17:59:25.088Z,13.85
2022-10-06T18:04:29.496Z,29.08
2022-10-06T18:09:32.190Z,47.80
2022-10-06T18:14:34.915Z,39.55
2022-10-06T18:19:38.976Z,36.67
2022-10-06T18:24:41.879Z,28.85
2022-10-06T18:29:44.692Z,31.75
2022-10-06T18:40:13.209Z,30.35
2022-10-06T18:45:39.146Z,28.67
2022-10-06T18:50:44.308Z,28.03
2022-10-06T18:55:47.093Z,18.02
2022-10-06T19:00:49.915Z,23.67
2022-10-06T19:05:54.393Z,16.13
2022-10-06T19:11:14.938Z,17.33
2022-10-06T19:16:18.218Z,21.73
2022-10-06T19:21:22.610Z,21.48
2022-10-06T19:26:26.382Z,25.65
2022-10-06T19:31:29.977Z,19.77
2022-10-06T19:36:34.212Z,19.55
2022-10-06T19:41:55.018Z,11.55
2022-10-06T19:46:58.178Z,14.18
2022-10-06T19:52:03.167Z,12.60
2022-10-06T19:57:06.506Z,17.83
2022-10-06T20:02:10.301Z,20.35
2022-10-06T20:07:14.542Z,15.48
2022-10-06T20:12:20.981Z,14.13
2022-10-06T20:17:28.870Z,32.38
2022-10-06T20:22:33.225Z,28.55
2022-10-06T20:27:35.936Z,17.15
2022-10-06T20:32:39.297Z,19.92
2022-10-06T20:37:43.585Z,15.32
2022-10-06T20:42:49.359Z,19.90
2022-10-06T20:47:52.213Z,18.60
2022-10-06T20:52:57.437Z,19.08
2022-10-06T20:58:00.193Z,13.57
2022-10-06T21:03:03.941Z,17.95
2022-10-06T21:08:08.075Z,12.70
2022-10-06T21:13:10.835Z,14.43
2022-10-06T21:18:15.167Z,18.70
2022-10-06T21:23:19.318Z,16.40
2022-10-06T21:28:24.402Z,14.45
2022-10-06T21:33:27.256Z,24.02
2022-10-06T21:38:32.420Z,11.68
2022-10-06T21:43:35.797Z,21.73
2022-10-06T21:48:40.963Z,18.13
2022-10-06T21:53:45.188Z,13.07
2022-10-06T21:58:51.674Z,17.02
2022-10-06T22:03:54.906Z,14.45
2022-10-06T22:09:00.224Z,10.75
2022-10-06T22:14:07.316Z,15.15
2022-10-06T22:19:12.391Z,16.23
2022-10-06T22:24:20.254Z,13.70
2022-10-06T22:29:28.706Z,12.90
2022-10-06T22:34:31.882Z,23.23
2022-10-06T22:39:36.232Z,36.80
2022-10-06T22:44:38.916Z,14.48
2022-10-06T22:49:41.881Z,18.15
2022-10-06T22:54:46.071Z,11.50
2022-10-06T22:59:51.760Z,18.88
2022-10-06T23:04:54.431Z,10.95
2022-10-06T23:09:58.553Z,12.27
2022-10-06T23:15:02.336Z,15.68
2022-10-06T23:20:05.791Z,12.52
2022-10-06T23:25:10.998Z,12.52
2022-10-06T23:30:14.840Z,15.38
2022-10-06T23:35:17.522Z,15.60
2022-10-06T23:40:22.307Z,16.88
2022-10-06T23:45:25.117Z,17.33
2022-10-06T23:50:28.391Z,15.27
2022-10-06T23:55:33.354Z,12.68
